createdAt,value
2023-01-17T00:00:50.259Z,63.68
2023-01-17T00:02:52.132Z,63.12
2023-01-17T00:04:53.800Z,63.01
2023-01-17T00:06:58.227Z,63.95
2023-01-17T00:09:02.565Z,63.19
2023-01-17T00:11:05.842Z,63.31
2023-01-17T00:13:07.856Z,63.51
2023-01-17T00:15:10.677Z,63.38
2023-01-17T00:17:12.329Z,62.84
2023-01-17T00:19:14.129Z,62.94
2023-01-17T00:21:15.889Z,63.13
2023-01-17T00:23:21.599Z,63.97
2023-01-17T00:25:26.380Z,64.03
2023-01-17T00:27:28.207Z,63.51
2023-01-17T00:29:30.091Z,63.12
2023-01-17T00:31:31.805Z,62.96
2023-01-17T00:33:34.073Z,63.21
2023-01-17T00:35:35.670Z,63.55
2023-01-17T00:37:37.410Z,63.49
2023-01-17T00:39:40.318Z,63.33
2023-01-17T00:41:42.131Z,63.68
2023-01-17T00:43:43.802Z,63.46
2023-01-17T00:45:46.531Z,63.21
2023-01-17T00:47:48.209Z,63.66
2023-01-17T00:49:50.770Z,64.01
2023-01-17T00:51:52.334Z,63.47
2023-01-17T00:53:53.903Z,64.20
2023-01-17T00:56:00.692Z,63.51
2023-01-17T00:58:06.303Z,64.17
2023-01-17T01:00:12.140Z,64.12
2023-01-17T01:02:14.015Z,63.81
2023-01-17T01:04:15.759Z,64.35
2023-01-17T01:06:18.937Z,63.98
2023-01-17T01:08:22.652Z,64.23
2023-01-17T01:10:24.345Z,64.27
2023-01-17T01:12:27.412Z,64.49
2023-01-17T01:14:31.022Z,64.70
2023-01-17T01:16:32.915Z,63.88
2023-01-17T01:18:34.647Z,63.92
2023-01-17T01:20:36.287Z,64.63
2023-01-17T01:22:37.882Z,63.72
2023-01-17T01:24:39.365Z,63.73
2023-01-17T01:26:40.855Z,63.67
2023-01-17T01:28:43.767Z,63.97
2023-01-17T01:30:45.406Z,64.04
2023-01-17T01:32:47.166Z,64.95
2023-01-17T01:34:48.707Z,64.82
2023-01-17T01:36:50.250Z,64.89
2023-01-17T01:38:55.926Z,64.45
2023-01-17T01:40:59.236Z,64.59
2023-01-17T01:43:02.480Z,64.74
2023-01-17T01:45:16.849Z,64.93
2023-01-17T01:47:26.971Z,65.54
2023-01-17T01:49:28.880Z,65.34
2023-01-17T01:51:35.378Z,65.11
2023-01-17T01:53:46.588Z,65.46
2023-01-17T01:55:51.264Z,65.59
2023-01-17T01:57:59.891Z,64.98
2023-01-17T02:00:08.239Z,65.25
2023-01-17T02:02:09.976Z,65.36
2023-01-17T02:04:13.050Z,65.20
2023-01-17T02:06:26.127Z,65.58
2023-01-17T02:08:28.164Z,64.88
2023-01-17T02:10:34.032Z,65.15
2023-01-17T02:12:36.021Z,65.65
2023-01-17T02:14:37.707Z,65.93
2023-01-17T02:17:08.220Z,66.13
2023-01-17T02:20:05.288Z,65.27
2023-01-17T02:22:31.850Z,65.56
2023-01-17T02:25:06.865Z,65.20
2023-01-17T02:27:21.504Z,65.89
2023-01-17T02:30:01.963Z,66.13
2023-01-17T02:32:10.371Z,65.75
2023-01-17T02:34:19.387Z,65.52
2023-01-17T02:36:27.437Z,65.64
2023-01-17T02:38:37.133Z,65.71
2023-01-17T02:40:43.047Z,65.62
2023-01-17T02:42:51.802Z,66.00
2023-01-17T02:44:53.357Z,65.79
2023-01-17T02:46:56.598Z,65.55
2023-01-17T02:48:59.833Z,66.09
2023-01-17T02:51:27.220Z,66.32
2023-01-17T02:53:43.818Z,66.08
2023-01-17T02:55:57.264Z,66.28
2023-01-17T02:58:10.035Z,66.08
2023-01-17T03:00:22.082Z,66.18
2023-01-17T03:02:35.617Z,66.60
2023-01-17T03:04:44.911Z,66.81
2023-01-17T03:06:51.904Z,66.48
2023-01-17T03:08:54.433Z,66.28
2023-01-17T03:10:58.006Z,66.92
2023-01-17T03:13:04.121Z,66.39
2023-01-17T03:15:09.892Z,66.42
2023-01-17T03:17:11.598Z,66.24
2023-01-17T03:19:13.299Z,66.59
2023-01-17T03:21:16.432Z,67.16
2023-01-17T03:23:18.170Z,66.84
2023-01-17T03:25:19.942Z,66.40
2023-01-17T03:27:21.579Z,67.18
2023-01-17T03:29:24.374Z,67.37
2023-01-17T03:31:27.543Z,66.88
2023-01-17T03:33:30.864Z,67.33
2023-01-17T03:35:32.665Z,66.70
2023-01-17T03:37:37.863Z,67.13
2023-01-17T03:39:41.361Z,66.82
2023-01-17T03:41:43.148Z,66.99
2023-01-17T03:43:45.771Z,66.65
2023-01-17T03:45:51.514Z,67.34
2023-01-17T03:47:53.203Z,67.16
2023-01-17T03:49:54.933Z,67.66
2023-01-17T03:51:56.651Z,66.94
2023-01-17T03:53:59.861Z,67.27
2023-01-17T03:56:01.654Z,67.45
2023-01-17T03:58:08.111Z,66.78
2023-01-17T04:00:11.071Z,66.98
2023-01-17T04:02:12.949Z,67.53
2023-01-17T04:04:14.613Z,67.40
2023-01-17T04:06:16.563Z,67.96
2023-01-17T04:08:18.222Z,67.14
2023-01-17T04:10:25.005Z,67.58
2023-01-17T04:12:26.776Z,67.93
2023-01-17T04:14:29.782Z,67.80
2023-01-17T04:16:38.553Z,67.75
2023-01-17T04:18:40.204Z,67.29
2023-01-17T04:20:42.000Z,67.44
2023-01-17T04:22:43.747Z,67.62
2023-01-17T04:24:47.235Z,67.73
2023-01-17T04:26:50.279Z,68.31
2023-01-17T04:28:51.840Z,67.64
2023-01-17T04:30:53.551Z,67.72
2023-01-17T04:32:55.412Z,68.02
2023-01-17T04:34:59.303Z,68.26
2023-01-17T04:37:02.244Z,68.41
2023-01-17T04:39:06.079Z,67.75
2023-01-17T04:41:09.664Z,67.63
2023-01-17T04:43:12.874Z,67.75
2023-01-17T04:45:16.469Z,68.59
2023-01-17T04:47:17.959Z,67.64
2023-01-17T04:49:19.515Z,67.63
2023-01-17T04:51:21.156Z,68.08
2023-01-17T04:53:22.756Z,68.11
2023-01-17T04:55:24.616Z,67.83
2023-01-17T04:57:26.148Z,68.40
2023-01-17T04:59:29.091Z,68.78
2023-01-17T05:01:30.757Z,68.81
2023-01-17T05:03:33.220Z,68.14
2023-01-17T05:05:34.788Z,68.02
2023-01-17T05:07:38.271Z,68.57
2023-01-17T05:09:40.251Z,68.20
2023-01-17T05:12:03.781Z,68.31
2023-01-17T05:14:05.426Z,68.43
2023-01-17T05:16:09.138Z,68.94
2023-01-17T05:18:12.769Z,68.39
2023-01-17T05:20:17.195Z,68.67
2023-01-17T05:22:18.940Z,68.42
2023-01-17T05:24:20.838Z,68.32
2023-01-17T05:26:22.454Z,68.55
2023-01-17T05:28:24.196Z,68.74
2023-01-17T05:30:27.358Z,68.64
2023-01-17T05:32:30.377Z,69.03
2023-01-17T05:34:33.519Z,68.38
2023-01-17T05:36:38.997Z,68.39
2023-01-17T05:38:41.913Z,68.92
2023-01-17T05:40:43.715Z,68.57
2023-01-17T05:42:47.919Z,68.71
2023-01-17T05:44:49.615Z,68.74
2023-01-17T15:34:09.722Z,64.75
2023-01-17T16:21:45.962Z,65.68
2023-01-17T16:35:15.029Z,66.44
2023-01-17T17:42:55.107Z,67.14
2023-01-17T18:04:44.818Z,67.42
2023-01-17T18:12:14.525Z,67.52
2023-01-17T18:14:26.743Z,67.45
2023-01-17T20:02:35.623Z,67.02
2023-01-17T20:13:12.151Z,66.82
